sensor_id;sensor_type;location;lat;lon;timestamp;temperature;humidity
65854;DHT22;52627;48.838;2.402;2022-10-17T00:00:58;18.97;81.56
65854;DHT22;52627;48.838;2.402;2022-10-17T00:03:26;18.98;81.57
65854;DHT22;52627;48.838;2.402;2022-10-17T00:05:53;18.99;81.60
65854;DHT22;52627;48.838;2.402;2022-10-17T00:08:21;19.00;81.58
65854;DHT22;52627;48.838;2.402;2022-10-17T00:10:59;19.00;81.60
65854;DHT22;52627;48.838;2.402;2022-10-17T00:13:31;19.00;81.66
65854;DHT22;52627;48.838;2.402;2022-10-17T00:16:04;18.99;81.63
65854;DHT22;52627;48.838;2.402;2022-10-17T00:18:33;18.99;81.60
65854;DHT22;52627;48.838;2.402;2022-10-17T00:21:00;19.00;81.61
65854;DHT22;52627;48.838;2.402;2022-10-17T00:23:28;19.00;81.60
65854;DHT22;52627;48.838;2.402;2022-10-17T00:25:57;19.02;81.58
65854;DHT22;52627;48.838;2.402;2022-10-17T00:28:30;19.03;81.54
65854;DHT22;52627;48.838;2.402;2022-10-17T00:30:59;19.04;81.50
65854;DHT22;52627;48.838;2.402;2022-10-17T00:33:30;19.04;81.50
65854;DHT22;52627;48.838;2.402;2022-10-17T00:36:04;19.05;81.49
65854;DHT22;52627;48.838;2.402;2022-10-17T00:38:40;19.04;81.47
65854;DHT22;52627;48.838;2.402;2022-10-17T00:41:10;19.02;81.45
65854;DHT22;52627;48.838;2.402;2022-10-17T00:43:47;19.03;81.42
65854;DHT22;52627;48.838;2.402;2022-10-17T00:46:33;19.02;81.40
65854;DHT22;52627;48.838;2.402;2022-10-17T00:49:12;19.02;81.35
65854;DHT22;52627;48.838;2.402;2022-10-17T00:51:44;19.02;81.30
65854;DHT22;52627;48.838;2.402;2022-10-17T00:54:16;19.03;81.25
65854;DHT22;52627;48.838;2.402;2022-10-17T00:56:45;19.04;81.21
65854;DHT22;52627;48.838;2.402;2022-10-17T00:59:15;19.04;81.20
65854;DHT22;52627;48.838;2.402;2022-10-17T01:01:47;19.03;81.15
65854;DHT22;52627;48.838;2.402;2022-10-17T01:04:26;19.02;81.10
65854;DHT22;52627;48.838;2.402;2022-10-17T01:06:53;19.01;81.10
65854;DHT22;52627;48.838;2.402;2022-10-17T01:09:21;19.01;81.03
65854;DHT22;52627;48.838;2.402;2022-10-17T01:14:47;18.99;80.95
65854;DHT22;52627;48.838;2.402;2022-10-17T01:25:53;19.01;80.69
65854;DHT22;52627;48.838;2.402;2022-10-17T01:28:53;19.00;80.60
65854;DHT22;52627;48.838;2.402;2022-10-17T01:31:48;19.02;80.51
65854;DHT22;52627;48.838;2.402;2022-10-17T01:34:33;19.03;80.48
65854;DHT22;52627;48.838;2.402;2022-10-17T01:37:05;19.03;80.40
65854;DHT22;52627;48.838;2.402;2022-10-17T01:39:44;19.02;80.36
65854;DHT22;52627;48.838;2.402;2022-10-17T01:42:16;19.03;80.24
65854;DHT22;52627;48.838;2.402;2022-10-17T01:44:57;19.03;80.19
65854;DHT22;52627;48.838;2.402;2022-10-17T01:47:33;19.04;80.10
65854;DHT22;52627;48.838;2.402;2022-10-17T01:50:06;19.03;80.05
65854;DHT22;52627;48.838;2.402;2022-10-17T01:52:43;19.04;80.00
65854;DHT22;52627;48.838;2.402;2022-10-17T01:55:21;19.04;79.92
65854;DHT22;52627;48.838;2.402;2022-10-17T01:57:56;19.04;79.87
65854;DHT22;52627;48.838;2.402;2022-10-17T02:00:36;19.02;79.81
65854;DHT22;52627;48.838;2.402;2022-10-17T02:03:07;19.01;79.76
65854;DHT22;52627;48.838;2.402;2022-10-17T02:05:40;19.00;79.71
65854;DHT22;52627;48.838;2.402;2022-10-17T02:08:10;18.99;79.70
65854;DHT22;52627;48.838;2.402;2022-10-17T02:25:09;18.90;79.55
65854;DHT22;52627;48.838;2.402;2022-10-17T02:28:04;18.90;79.51
65854;DHT22;52627;48.838;2.402;2022-10-17T02:30:42;18.90;79.50
65854;DHT22;52627;48.838;2.402;2022-10-17T02:33:22;18.89;79.49
65854;DHT22;52627;48.838;2.402;2022-10-17T02:36:00;18.87;79.50
65854;DHT22;52627;48.838;2.402;2022-10-17T02:38:32;18.85;79.50
65854;DHT22;52627;48.838;2.402;2022-10-17T02:41:01;18.83;79.50
65854;DHT22;52627;48.838;2.402;2022-10-17T02:43:33;18.81;79.50
65854;DHT22;52627;48.838;2.402;2022-10-17T02:46:02;18.80;79.50
65854;DHT22;52627;48.838;2.402;2022-10-17T02:48:36;18.80;79.50
65854;DHT22;52627;48.838;2.402;2022-10-17T02:56:53;18.78;79.40
65854;DHT22;52627;48.838;2.402;2022-10-17T02:59:27;18.78;79.40
65854;DHT22;52627;48.838;2.402;2022-10-17T03:01:56;18.78;79.38
65854;DHT22;52627;48.838;2.402;2022-10-17T03:04:24;18.78;79.33
65854;DHT22;52627;48.838;2.402;2022-10-17T03:06:51;18.78;79.30
65854;DHT22;52627;48.838;2.402;2022-10-17T03:09:19;18.77;79.28
65854;DHT22;52627;48.838;2.402;2022-10-17T03:11:46;18.78;79.19
65854;DHT22;52627;48.838;2.402;2022-10-17T03:14:13;18.79;79.12
65854;DHT22;52627;48.838;2.402;2022-10-17T03:16:41;18.78;79.08
65854;DHT22;52627;48.838;2.402;2022-10-17T03:19:08;18.79;79.00
65854;DHT22;52627;48.838;2.402;2022-10-17T03:21:35;18.78;78.92
65854;DHT22;52627;48.838;2.402;2022-10-17T03:24:04;18.77;78.77
65854;DHT22;52627;48.838;2.402;2022-10-17T03:26:31;18.76;78.70
65854;DHT22;52627;48.838;2.402;2022-10-17T03:28:59;18.77;78.58
65854;DHT22;52627;48.838;2.402;2022-10-17T03:31:26;18.77;78.52
65854;DHT22;52627;48.838;2.402;2022-10-17T03:33:53;18.76;78.40
65854;DHT22;52627;48.838;2.402;2022-10-17T03:36:21;18.75;78.32
65854;DHT22;52627;48.838;2.402;2022-10-17T03:38:51;18.73;78.13
65854;DHT22;52627;48.838;2.402;2022-10-17T03:41:20;18.73;78.10
65854;DHT22;52627;48.838;2.402;2022-10-17T03:43:48;18.71;78.05
65854;DHT22;52627;48.838;2.402;2022-10-17T03:46:15;18.69;77.96
65854;DHT22;52627;48.838;2.402;2022-10-17T03:48:43;18.69;77.90
65854;DHT22;52627;48.838;2.402;2022-10-17T03:51:11;18.70;77.89
65854;DHT22;52627;48.838;2.402;2022-10-17T03:53:39;18.71;77.82
65854;DHT22;52627;48.838;2.402;2022-10-17T03:56:14;18.72;77.78
65854;DHT22;52627;48.838;2.402;2022-10-17T03:58:46;18.73;77.71
65854;DHT22;52627;48.838;2.402;2022-10-17T04:01:15;18.73;77.69
65854;DHT22;52627;48.838;2.402;2022-10-17T04:03:47;18.73;77.60
65854;DHT22;52627;48.838;2.402;2022-10-17T04:06:20;18.74;77.60
65854;DHT22;52627;48.838;2.402;2022-10-17T04:08:48;18.74;77.51
65854;DHT22;52627;48.838;2.402;2022-10-17T04:11:17;18.74;77.50
65854;DHT22;52627;48.838;2.402;2022-10-17T04:13:51;18.75;77.49
65854;DHT22;52627;48.838;2.402;2022-10-17T04:16:22;18.74;77.36
65854;DHT22;52627;48.838;2.402;2022-10-17T04:18:53;18.74;77.32
65854;DHT22;52627;48.838;2.402;2022-10-17T04:21:25;18.73;77.27
65854;DHT22;52627;48.838;2.402;2022-10-17T04:23:58;18.73;77.20
65854;DHT22;52627;48.838;2.402;2022-10-17T04:26:26;18.71;77.14
65854;DHT22;52627;48.838;2.402;2022-10-17T04:28:54;18.70;77.10
65854;DHT22;52627;48.838;2.402;2022-10-17T04:31:21;18.71;77.10
65854;DHT22;52627;48.838;2.402;2022-10-17T04:33:49;18.71;77.10
65854;DHT22;52627;48.838;2.402;2022-10-17T04:36:17;18.70;77.01
65854;DHT22;52627;48.838;2.402;2022-10-17T04:38:46;18.69;76.96
65854;DHT22;52627;48.838;2.402;2022-10-17T04:41:14;18.69;76.98
65854;DHT22;52627;48.838;2.402;2022-10-17T04:43:44;18.69;76.93
65854;DHT22;52627;48.838;2.402;2022-10-17T04:46:17;18.69;76.90
65854;DHT22;52627;48.838;2.402;2022-10-17T04:48:44;18.69;76.81
65854;DHT22;52627;48.838;2.402;2022-10-17T04:51:12;18.69;76.80
65854;DHT22;52627;48.838;2.402;2022-10-17T04:53:42;18.69;76.81
65854;DHT22;52627;48.838;2.402;2022-10-17T04:56:18;18.68;76.78
65854;DHT22;52627;48.838;2.402;2022-10-17T04:58:48;18.69;76.79
65854;DHT22;52627;48.838;2.402;2022-10-17T05:01:16;18.70;76.80
65854;DHT22;52627;48.838;2.402;2022-10-17T05:03:46;18.71;76.77
65854;DHT22;52627;48.838;2.402;2022-10-17T05:06:15;18.72;76.70
65854;DHT22;52627;48.838;2.402;2022-10-17T05:08:46;18.73;76.68
65854;DHT22;52627;48.838;2.402;2022-10-17T05:11:15;18.73;76.68
65854;DHT22;52627;48.838;2.402;2022-10-17T05:13:52;18.74;76.65
65854;DHT22;52627;48.838;2.402;2022-10-17T05:16:28;18.74;76.71
65854;DHT22;52627;48.838;2.402;2022-10-17T05:18:57;18.74;76.70
65854;DHT22;52627;48.838;2.402;2022-10-17T05:21:25;18.73;76.77
65854;DHT22;52627;48.838;2.402;2022-10-17T05:23:53;18.73;76.83
65854;DHT22;52627;48.838;2.402;2022-10-17T05:26:21;18.71;76.85
65854;DHT22;52627;48.838;2.402;2022-10-17T05:28:50;18.72;76.87
65854;DHT22;52627;48.838;2.402;2022-10-17T05:31:18;18.71;76.90
65854;DHT22;52627;48.838;2.402;2022-10-17T05:33:46;18.70;76.89
65854;DHT22;52627;48.838;2.402;2022-10-17T05:36:13;18.70;76.91
65854;DHT22;52627;48.838;2.402;2022-10-17T05:38:41;18.69;76.93
65854;DHT22;52627;48.838;2.402;2022-10-17T05:41:09;18.68;76.97
65854;DHT22;52627;48.838;2.402;2022-10-17T05:43:36;18.67;76.95
65854;DHT22;52627;48.838;2.402;2022-10-17T05:46:04;18.66;76.89
65854;DHT22;52627;48.838;2.402;2022-10-17T05:48:32;18.66;76.95
65854;DHT22;52627;48.838;2.402;2022-10-17T05:51:03;18.66;76.99
65854;DHT22;52627;48.838;2.402;2022-10-17T05:53:34;18.66;77.00
65854;DHT22;52627;48.838;2.402;2022-10-17T05:56:05;18.66;77.00
65854;DHT22;52627;48.838;2.402;2022-10-17T05:58:35;18.65;77.01
65854;DHT22;52627;48.838;2.402;2022-10-17T06:01:27;18.65;77.13
65854;DHT22;52627;48.838;2.402;2022-10-17T06:03:54;18.63;77.20
65854;DHT22;52627;48.838;2.402;2022-10-17T06:06:22;18.63;77.27
65854;DHT22;52627;48.838;2.402;2022-10-17T06:08:49;18.59;77.41
65854;DHT22;52627;48.838;2.402;2022-10-17T06:11:16;18.58;77.57
65854;DHT22;52627;48.838;2.402;2022-10-17T06:13:44;18.56;77.61
65854;DHT22;52627;48.838;2.402;2022-10-17T06:16:11;18.55;77.65
65854;DHT22;52627;48.838;2.402;2022-10-17T06:18:39;18.52;77.71
65854;DHT22;52627;48.838;2.402;2022-10-17T06:21:07;18.50;77.80
65854;DHT22;52627;48.838;2.402;2022-10-17T06:23:37;18.48;77.85
65854;DHT22;52627;48.838;2.402;2022-10-17T06:26:05;18.48;77.90
65854;DHT22;52627;48.838;2.402;2022-10-17T06:28:33;18.48;77.90
65854;DHT22;52627;48.838;2.402;2022-10-17T06:31:08;18.47;77.90
65854;DHT22;52627;48.838;2.402;2022-10-17T06:33:38;18.49;77.96
65854;DHT22;52627;48.838;2.402;2022-10-17T06:36:06;18.50;78.00
65854;DHT22;52627;48.838;2.402;2022-10-17T06:38:35;18.51;78.03
65854;DHT22;52627;48.838;2.402;2022-10-17T06:43:40;18.53;78.10
65854;DHT22;52627;48.838;2.402;2022-10-17T06:46:12;18.55;78.12
65854;DHT22;52627;48.838;2.402;2022-10-17T06:48:43;18.56;78.15
65854;DHT22;52627;48.838;2.402;2022-10-17T06:51:10;18.58;78.20
65854;DHT22;52627;48.838;2.402;2022-10-17T06:53:38;18.60;78.20
65854;DHT22;52627;48.838;2.402;2022-10-17T06:56:07;18.62;78.20
65854;DHT22;52627;48.838;2.402;2022-10-17T06:58:37;18.64;78.20
65854;DHT22;52627;48.838;2.402;2022-10-17T07:01:06;18.66;78.26
65854;DHT22;52627;48.838;2.402;2022-10-17T07:03:36;18.69;78.21
65854;DHT22;52627;48.838;2.402;2022-10-17T07:06:04;18.70;78.20
65854;DHT22;52627;48.838;2.402;2022-10-17T07:08:32;18.73;78.20
65854;DHT22;52627;48.838;2.402;2022-10-17T07:11:07;18.75;78.20
65854;DHT22;52627;48.838;2.402;2022-10-17T07:13:39;18.78;78.20
65854;DHT22;52627;48.838;2.402;2022-10-17T07:16:07;18.81;78.20
65854;DHT22;52627;48.838;2.402;2022-10-17T07:18:35;18.83;78.20
65854;DHT22;52627;48.838;2.402;2022-10-17T07:21:03;18.87;78.17
65854;DHT22;52627;48.838;2.402;2022-10-17T07:23:31;18.89;78.10
65854;DHT22;52627;48.838;2.402;2022-10-17T07:26:03;18.92;78.10
65854;DHT22;52627;48.838;2.402;2022-10-17T07:28:35;18.95;78.10
65854;DHT22;52627;48.838;2.402;2022-10-17T07:31:06;18.98;78.10
65854;DHT22;52627;48.838;2.402;2022-10-17T07:33:41;19.00;78.10
65854;DHT22;52627;48.838;2.402;2022-10-17T07:36:10;19.02;78.08
65854;DHT22;52627;48.838;2.402;2022-10-17T07:38:38;19.04;78.08
65854;DHT22;52627;48.838;2.402;2022-10-17T07:41:07;19.08;78.08
65854;DHT22;52627;48.838;2.402;2022-10-17T07:43:35;19.13;78.03
65854;DHT22;52627;48.838;2.402;2022-10-17T07:46:03;19.16;77.98
65854;DHT22;52627;48.838;2.402;2022-10-17T07:48:32;19.20;77.96
65854;DHT22;52627;48.838;2.402;2022-10-17T07:51:04;19.26;77.90
65854;DHT22;52627;48.838;2.402;2022-10-17T07:53:34;19.30;77.87
65854;DHT22;52627;48.838;2.402;2022-10-17T07:56:04;19.36;77.78
65854;DHT22;52627;48.838;2.402;2022-10-17T07:58:34;19.43;77.71
65854;DHT22;52627;48.838;2.402;2022-10-17T08:01:03;19.47;77.70
65854;DHT22;52627;48.838;2.402;2022-10-17T08:03:40;19.51;77.64
65854;DHT22;52627;48.838;2.402;2022-10-17T08:06:10;19.54;77.60
65854;DHT22;52627;48.838;2.402;2022-10-17T08:08:38;19.56;77.60
65854;DHT22;52627;48.838;2.402;2022-10-17T08:11:08;19.56;77.52
65854;DHT22;52627;48.838;2.402;2022-10-17T08:13:38;19.56;77.49
65854;DHT22;52627;48.838;2.402;2022-10-17T08:16:08;19.55;77.44
65854;DHT22;52627;48.838;2.402;2022-10-17T08:18:38;19.53;77.40
65854;DHT22;52627;48.838;2.402;2022-10-17T08:21:09;19.52;77.35
65854;DHT22;52627;48.838;2.402;2022-10-17T08:23:37;19.52;77.36
65854;DHT22;52627;48.838;2.402;2022-10-17T08:26:05;19.54;77.30
65854;DHT22;52627;48.838;2.402;2022-10-17T08:28:37;19.59;77.30
65854;DHT22;52627;48.838;2.402;2022-10-17T08:31:14;19.62;77.18
65854;DHT22;52627;48.838;2.402;2022-10-17T08:33:45;19.66;77.19
65854;DHT22;52627;48.838;2.402;2022-10-17T08:36:15;19.69;77.17
65854;DHT22;52627;48.838;2.402;2022-10-17T08:38:45;19.71;77.11
65854;DHT22;52627;48.838;2.402;2022-10-17T08:44:32;19.77;77.09
65854;DHT22;52627;48.838;2.402;2022-10-17T08:47:13;19.79;77.10
65854;DHT22;52627;48.838;2.402;2022-10-17T08:49:51;19.81;77.08
65854;DHT22;52627;48.838;2.402;2022-10-17T08:52:27;19.82;77.08
65854;DHT22;52627;48.838;2.402;2022-10-17T08:55:07;19.85;77.02
65854;DHT22;52627;48.838;2.402;2022-10-17T08:57:42;19.89;77.02
65854;DHT22;52627;48.838;2.402;2022-10-17T09:00:12;19.91;77.00
65854;DHT22;52627;48.838;2.402;2022-10-17T09:06:00;19.96;77.04
65854;DHT22;52627;48.838;2.402;2022-10-17T09:20:23;19.99;77.17
65854;DHT22;52627;48.838;2.402;2022-10-17T09:25:39;20.00;77.37
65854;DHT22;52627;48.838;2.402;2022-10-17T09:33:51;19.97;77.61
65854;DHT22;52627;48.838;2.402;2022-10-17T09:36:29;19.97;77.68
65854;DHT22;52627;48.838;2.402;2022-10-17T09:39:01;19.97;77.82
65854;DHT22;52627;48.838;2.402;2022-10-17T09:41:33;19.95;78.03
65854;DHT22;52627;48.838;2.402;2022-10-17T09:49:41;19.82;78.68
65854;DHT22;52627;48.838;2.402;2022-10-17T09:52:27;19.76;78.84
65854;DHT22;52627;48.838;2.402;2022-10-17T09:55:02;19.71;79.06
65854;DHT22;52627;48.838;2.402;2022-10-17T09:58:01;19.68;79.19
65854;DHT22;52627;48.838;2.402;2022-10-17T10:00:38;19.69;79.31
65854;DHT22;52627;48.838;2.402;2022-10-17T10:03:16;19.68;79.42
65854;DHT22;52627;48.838;2.402;2022-10-17T10:06:00;19.67;79.53
65854;DHT22;52627;48.838;2.402;2022-10-17T10:08:36;19.66;79.63
65854;DHT22;52627;48.838;2.402;2022-10-17T10:11:22;19.65;79.73
65854;DHT22;52627;48.838;2.402;2022-10-17T10:13:53;19.65;79.85
65854;DHT22;52627;48.838;2.402;2022-10-17T10:16:22;19.64;80.00
65854;DHT22;52627;48.838;2.402;2022-10-17T10:18:57;19.64;80.11
65854;DHT22;52627;48.838;2.402;2022-10-17T10:21:25;19.64;80.21
65854;DHT22;52627;48.838;2.402;2022-10-17T10:31:52;19.56;80.83
65854;DHT22;52627;48.838;2.402;2022-10-17T10:34:21;19.53;80.93
65854;DHT22;52627;48.838;2.402;2022-10-17T10:36:52;19.51;81.03
65854;DHT22;52627;48.838;2.402;2022-10-17T10:39:25;19.47;81.20
65854;DHT22;52627;48.838;2.402;2022-10-17T10:42:03;19.44;81.39
65854;DHT22;52627;48.838;2.402;2022-10-17T10:44:35;19.44;81.43
65854;DHT22;52627;48.838;2.402;2022-10-17T10:49:49;19.49;81.55
65854;DHT22;52627;48.838;2.402;2022-10-17T10:53:22;19.48;81.62
65854;DHT22;52627;48.838;2.402;2022-10-17T10:55:29;19.45;81.70
65854;DHT22;52627;48.838;2.402;2022-10-17T10:58:16;19.44;81.80
65854;DHT22;52627;48.838;2.402;2022-10-17T11:00:59;19.42;81.84
65854;DHT22;52627;48.838;2.402;2022-10-17T11:04:05;19.38;82.00
65854;DHT22;52627;48.838;2.402;2022-10-17T11:06:54;19.37;82.12
65854;DHT22;52627;48.838;2.402;2022-10-17T11:12:21;19.34;82.28
65854;DHT22;52627;48.838;2.402;2022-10-17T11:23:15;19.25;82.77
65854;DHT22;52627;48.838;2.402;2022-10-17T11:25:50;19.25;82.88
65854;DHT22;52627;48.838;2.402;2022-10-17T11:28:20;19.26;82.95
65854;DHT22;52627;48.838;2.402;2022-10-17T11:30:55;19.27;83.01
65854;DHT22;52627;48.838;2.402;2022-10-17T11:36:24;19.33;83.12
65854;DHT22;52627;48.838;2.402;2022-10-17T11:39:01;19.34;83.20
65854;DHT22;52627;48.838;2.402;2022-10-17T11:42:37;19.35;83.30
65854;DHT22;52627;48.838;2.402;2022-10-17T11:45:16;19.35;83.40
65854;DHT22;52627;48.838;2.402;2022-10-17T11:47:54;19.36;83.33
65854;DHT22;52627;48.838;2.402;2022-10-17T11:50:29;19.38;83.39
65854;DHT22;52627;48.838;2.402;2022-10-17T11:53:22;19.40;83.45
65854;DHT22;52627;48.838;2.402;2022-10-17T11:55:53;19.41;83.54
65854;DHT22;52627;48.838;2.402;2022-10-17T12:07:37;19.38;83.81
65854;DHT22;52627;48.838;2.402;2022-10-17T12:15:54;19.38;83.90
65854;DHT22;52627;48.838;2.402;2022-10-17T12:18:23;19.40;83.94
65854;DHT22;52627;48.838;2.402;2022-10-17T12:20:56;19.40;83.99
65854;DHT22;52627;48.838;2.402;2022-10-17T12:23:26;19.45;84.01
65854;DHT22;52627;48.838;2.402;2022-10-17T12:26:03;19.47;84.03
65854;DHT22;52627;48.838;2.402;2022-10-17T12:28:47;19.47;84.05
65854;DHT22;52627;48.838;2.402;2022-10-17T12:33:55;19.45;84.04
65854;DHT22;52627;48.838;2.402;2022-10-17T12:46:43;19.49;84.20
65854;DHT22;52627;48.838;2.402;2022-10-17T12:55:00;19.51;84.28
65854;DHT22;52627;48.838;2.402;2022-10-17T12:58:00;19.49;84.29
65854;DHT22;52627;48.838;2.402;2022-10-17T13:00:35;19.48;84.39
65854;DHT22;52627;48.838;2.402;2022-10-17T13:03:31;19.44;84.59
65854;DHT22;52627;48.838;2.402;2022-10-17T13:06:02;19.42;84.83
65854;DHT22;52627;48.838;2.402;2022-10-17T13:08:34;19.39;85.00
65854;DHT22;52627;48.838;2.402;2022-10-17T13:11:05;19.34;85.01
65854;DHT22;52627;48.838;2.402;2022-10-17T13:13:36;19.29;85.12
65854;DHT22;52627;48.838;2.402;2022-10-17T13:16:08;19.25;85.27
65854;DHT22;52627;48.838;2.402;2022-10-17T13:19:03;19.21;85.30
65854;DHT22;52627;48.838;2.402;2022-10-17T13:21:48;19.17;85.42
65854;DHT22;52627;48.838;2.402;2022-10-17T13:24:30;19.15;85.53
65854;DHT22;52627;48.838;2.402;2022-10-17T13:27:03;19.13;85.58
65854;DHT22;52627;48.838;2.402;2022-10-17T13:29:47;19.13;85.67
65854;DHT22;52627;48.838;2.402;2022-10-17T13:32:14;19.10;85.77
65854;DHT22;52627;48.838;2.402;2022-10-17T13:34:42;19.07;85.88
65854;DHT22;52627;48.838;2.402;2022-10-17T13:37:12;19.07;85.98
65854;DHT22;52627;48.838;2.402;2022-10-17T13:39:42;19.06;86.00
65854;DHT22;52627;48.838;2.402;2022-10-17T13:42:23;19.06;86.01
65854;DHT22;52627;48.838;2.402;2022-10-17T13:44:56;19.06;86.07
65854;DHT22;52627;48.838;2.402;2022-10-17T13:47:26;19.07;86.09
65854;DHT22;52627;48.838;2.402;2022-10-17T13:49:58;19.06;86.10
65854;DHT22;52627;48.838;2.402;2022-10-17T13:52:27;19.07;86.11
65854;DHT22;52627;48.838;2.402;2022-10-17T13:55:07;19.08;86.14
65854;DHT22;52627;48.838;2.402;2022-10-17T13:57:43;19.09;86.20
65854;DHT22;52627;48.838;2.402;2022-10-17T14:00:19;19.11;86.20
65854;DHT22;52627;48.838;2.402;2022-10-17T14:02:48;19.14;86.20
65854;DHT22;52627;48.838;2.402;2022-10-17T14:05:17;19.14;86.23
65854;DHT22;52627;48.838;2.402;2022-10-17T14:07:53;19.14;86.21
65854;DHT22;52627;48.838;2.402;2022-10-17T14:10:39;19.15;86.20
65854;DHT22;52627;48.838;2.402;2022-10-17T14:13:18;19.17;86.23
65854;DHT22;52627;48.838;2.402;2022-10-17T14:15:49;19.17;86.21
65854;DHT22;52627;48.838;2.402;2022-10-17T14:18:20;19.18;86.20
65854;DHT22;52627;48.838;2.402;2022-10-17T14:20:51;19.19;86.11
65854;DHT22;52627;48.838;2.402;2022-10-17T14:23:43;19.19;86.09
65854;DHT22;52627;48.838;2.402;2022-10-17T14:26:18;19.17;86.09
65854;DHT22;52627;48.838;2.402;2022-10-17T14:29:19;19.16;86.09
65854;DHT22;52627;48.838;2.402;2022-10-17T14:32:00;19.15;86.10
65854;DHT22;52627;48.838;2.402;2022-10-17T14:34:35;19.15;86.12
65854;DHT22;52627;48.838;2.402;2022-10-17T14:37:26;19.16;86.17
65854;DHT22;52627;48.838;2.402;2022-10-17T14:40:02;19.18;86.17
65854;DHT22;52627;48.838;2.402;2022-10-17T14:42:32;19.21;86.16
65854;DHT22;52627;48.838;2.402;2022-10-17T14:45:06;19.23;86.18
65854;DHT22;52627;48.838;2.402;2022-10-17T14:47:39;19.23;86.13
65854;DHT22;52627;48.838;2.402;2022-10-17T14:52:37;19.22;86.11
65854;DHT22;52627;48.838;2.402;2022-10-17T14:55:50;19.20;86.10
65854;DHT22;52627;48.838;2.402;2022-10-17T14:58:14;19.20;86.10
65854;DHT22;52627;48.838;2.402;2022-10-17T15:00:43;19.20;86.08
65854;DHT22;52627;48.838;2.402;2022-10-17T15:03:11;19.20;86.04
65854;DHT22;52627;48.838;2.402;2022-10-17T15:05:39;19.21;85.98
65854;DHT22;52627;48.838;2.402;2022-10-17T15:08:11;19.19;85.96
65854;DHT22;52627;48.838;2.402;2022-10-17T15:10:41;19.17;85.94
65854;DHT22;52627;48.838;2.402;2022-10-17T15:13:09;19.16;85.95
65854;DHT22;52627;48.838;2.402;2022-10-17T15:15:57;19.13;85.90
65854;DHT22;52627;48.838;2.402;2022-10-17T15:18:24;19.13;85.90
65854;DHT22;52627;48.838;2.402;2022-10-17T15:20:51;19.11;85.88
65854;DHT22;52627;48.838;2.402;2022-10-17T15:23:32;19.09;85.89
65854;DHT22;52627;48.838;2.402;2022-10-17T15:26:00;19.06;85.89
65854;DHT22;52627;48.838;2.402;2022-10-17T15:28:27;19.01;85.89
65854;DHT22;52627;48.838;2.402;2022-10-17T15:30:55;18.97;85.93
65854;DHT22;52627;48.838;2.402;2022-10-17T15:33:22;18.93;86.02
65854;DHT22;52627;48.838;2.402;2022-10-17T15:35:49;18.90;86.10
65854;DHT22;52627;48.838;2.402;2022-10-17T15:38:17;18.89;86.15
65854;DHT22;52627;48.838;2.402;2022-10-17T15:40:45;18.88;86.20
65854;DHT22;52627;48.838;2.402;2022-10-17T15:43:16;18.90;86.21
65854;DHT22;52627;48.838;2.402;2022-10-17T15:45:46;18.88;86.26
65854;DHT22;52627;48.838;2.402;2022-10-17T15:48:22;18.88;86.30
65854;DHT22;52627;48.838;2.402;2022-10-17T15:50:54;18.88;86.32
65854;DHT22;52627;48.838;2.402;2022-10-17T15:53:22;18.87;86.32
65854;DHT22;52627;48.838;2.402;2022-10-17T15:55:50;18.87;86.38
65854;DHT22;52627;48.838;2.402;2022-10-17T15:58:18;18.86;86.40
65854;DHT22;52627;48.838;2.402;2022-10-17T16:00:45;18.85;86.40
65854;DHT22;52627;48.838;2.402;2022-10-17T16:03:13;18.86;86.43
65854;DHT22;52627;48.838;2.402;2022-10-17T16:05:41;18.87;86.41
65854;DHT22;52627;48.838;2.402;2022-10-17T16:08:08;18.86;86.40
65854;DHT22;52627;48.838;2.402;2022-10-17T16:10:36;18.84;86.48
65854;DHT22;52627;48.838;2.402;2022-10-17T16:13:07;18.83;86.50
65854;DHT22;52627;48.838;2.402;2022-10-17T16:15:45;18.81;86.52
65854;DHT22;52627;48.838;2.402;2022-10-17T16:18:13;18.79;86.60
65854;DHT22;52627;48.838;2.402;2022-10-17T16:20:40;18.78;86.66
65854;DHT22;52627;48.838;2.402;2022-10-17T16:23:10;18.75;86.68
65854;DHT22;52627;48.838;2.402;2022-10-17T16:25:39;18.74;86.72
65854;DHT22;52627;48.838;2.402;2022-10-17T16:28:07;18.72;86.79
65854;DHT22;52627;48.838;2.402;2022-10-17T16:30:36;18.69;86.80
65854;DHT22;52627;48.838;2.402;2022-10-17T16:33:10;18.68;86.84
65854;DHT22;52627;48.838;2.402;2022-10-17T16:35:38;18.65;86.87
65854;DHT22;52627;48.838;2.402;2022-10-17T16:38:06;18.66;86.90
65854;DHT22;52627;48.838;2.402;2022-10-17T16:40:34;18.65;86.90
65854;DHT22;52627;48.838;2.402;2022-10-17T16:43:05;18.64;86.92
65854;DHT22;52627;48.838;2.402;2022-10-17T16:45:33;18.62;86.99
65854;DHT22;52627;48.838;2.402;2022-10-17T16:48:02;18.58;87.02
65854;DHT22;52627;48.838;2.402;2022-10-17T16:50:30;18.58;87.08
65854;DHT22;52627;48.838;2.402;2022-10-17T16:53:01;18.57;87.08
65854;DHT22;52627;48.838;2.402;2022-10-17T16:55:29;18.56;87.10
65854;DHT22;52627;48.838;2.402;2022-10-17T16:57:57;18.53;87.17
65854;DHT22;52627;48.838;2.402;2022-10-17T17:00:25;18.52;87.24
65854;DHT22;52627;48.838;2.402;2022-10-17T17:02:53;18.49;87.30
65854;DHT22;52627;48.838;2.402;2022-10-17T17:05:20;18.48;87.30
65854;DHT22;52627;48.838;2.402;2022-10-17T17:07:47;18.47;87.38
65854;DHT22;52627;48.838;2.402;2022-10-17T17:10:15;18.44;87.49
65854;DHT22;52627;48.838;2.402;2022-10-17T17:12:42;18.40;87.64
65854;DHT22;52627;48.838;2.402;2022-10-17T17:15:10;18.37;87.69
65854;DHT22;52627;48.838;2.402;2022-10-17T17:17:37;18.34;87.76
65854;DHT22;52627;48.838;2.402;2022-10-17T17:20:21;18.32;87.80
65854;DHT22;52627;48.838;2.402;2022-10-17T17:22:49;18.31;87.81
65854;DHT22;52627;48.838;2.402;2022-10-17T17:25:17;18.30;87.90
65854;DHT22;52627;48.838;2.402;2022-10-17T17:27:45;18.29;87.90
65854;DHT22;52627;48.838;2.402;2022-10-17T17:30:12;18.28;87.97
65854;DHT22;52627;48.838;2.402;2022-10-17T17:32:40;18.27;88.00
65854;DHT22;52627;48.838;2.402;2022-10-17T17:35:07;18.26;88.00
65854;DHT22;52627;48.838;2.402;2022-10-17T17:37:35;18.25;88.02
65854;DHT22;52627;48.838;2.402;2022-10-17T17:40:03;18.27;88.05
65854;DHT22;52627;48.838;2.402;2022-10-17T17:42:32;18.27;88.08
65854;DHT22;52627;48.838;2.402;2022-10-17T17:44:59;18.29;88.10
65854;DHT22;52627;48.838;2.402;2022-10-17T17:47:27;18.31;88.10
65854;DHT22;52627;48.838;2.402;2022-10-17T17:49:55;18.32;88.10
65854;DHT22;52627;48.838;2.402;2022-10-17T17:52:23;18.32;88.10
65854;DHT22;52627;48.838;2.402;2022-10-17T17:54:50;18.34;88.10
65854;DHT22;52627;48.838;2.402;2022-10-17T17:57:18;18.36;88.10
65854;DHT22;52627;48.838;2.402;2022-10-17T17:59:46;18.38;88.10
65854;DHT22;52627;48.838;2.402;2022-10-17T18:02:18;18.40;88.10
65854;DHT22;52627;48.838;2.402;2022-10-17T18:04:45;18.42;88.10
65854;DHT22;52627;48.838;2.402;2022-10-17T18:07:13;18.44;88.09
65854;DHT22;52627;48.838;2.402;2022-10-17T18:09:40;18.44;88.09